createdAt,value
2023-02-01T00:00:16.800Z,25.74
2023-02-01T00:01:16.836Z,25.76
2023-02-01T00:02:16.916Z,25.77
2023-02-01T00:03:16.997Z,25.79
2023-02-01T00:04:16.989Z,25.74
2023-02-01T00:05:17.127Z,25.76
2023-02-01T00:42:19.254Z,25.73
2023-02-01T00:46:19.577Z,25.74
2023-02-01T00:48:19.571Z,25.74
2023-02-01T01:01:20.326Z,25.76
2023-02-01T01:02:20.451Z,25.73
2023-02-01T01:30:22.652Z,25.73
2023-02-01T01:31:22.314Z,25.73
2023-02-01T01:32:22.287Z,25.70
2023-02-01T01:33:22.342Z,25.73
2023-02-01T01:34:22.453Z,25.72
2023-02-01T01:35:22.459Z,25.72
2023-02-01T01:36:22.583Z,25.73
2023-02-01T01:37:22.610Z,25.73
2023-02-01T01:38:22.644Z,25.72
2023-02-01T01:39:22.682Z,25.73
2023-02-01T01:40:23.031Z,25.73
2023-02-01T01:41:22.878Z,25.72
2023-02-01T01:42:22.862Z,25.73
2023-02-01T01:43:22.954Z,25.72
2023-02-01T01:44:22.989Z,25.73
2023-02-01T01:45:23.063Z,25.73
2023-02-01T01:46:23.150Z,25.72
2023-02-01T01:47:23.191Z,25.74
2023-02-01T01:48:23.264Z,25.73
2023-02-01T01:49:23.359Z,25.73
2023-02-01T01:50:23.790Z,25.72
2023-02-01T01:51:23.428Z,25.70
2023-02-01T01:52:23.481Z,25.69
2023-02-01T01:53:23.525Z,25.74
2023-02-01T01:54:23.611Z,25.73
2023-02-01T01:55:23.630Z,25.72
2023-02-01T01:56:23.720Z,25.72
2023-02-01T01:57:23.763Z,25.73
2023-02-01T01:58:23.851Z,25.73
2023-02-01T01:59:23.874Z,25.73
2023-02-01T02:00:24.172Z,25.72
2023-02-01T02:01:24.061Z,25.73
2023-02-01T02:02:24.136Z,25.74
2023-02-01T02:03:24.180Z,25.70
2023-02-01T02:04:24.238Z,25.73
2023-02-01T02:05:24.293Z,25.72
2023-02-01T02:06:24.340Z,25.73
2023-02-01T02:07:24.361Z,25.70
2023-02-01T02:08:24.471Z,25.73
2023-02-01T02:09:24.525Z,25.72
2023-02-01T02:10:24.571Z,25.70
2023-02-01T02:11:24.637Z,25.73
2023-02-01T02:12:24.700Z,25.73
2023-02-01T02:13:24.818Z,25.70
2023-02-01T02:14:24.770Z,25.70
2023-02-01T02:15:24.829Z,25.72
2023-02-01T02:16:24.974Z,25.70
2023-02-01T02:17:24.969Z,25.70
2023-02-01T02:18:24.985Z,25.74
2023-02-01T02:19:25.069Z,25.73
2023-02-01T02:21:25.218Z,25.73
2023-02-01T02:22:25.278Z,25.73
2023-02-01T03:05:27.615Z,26.04
2023-02-01T03:22:28.053Z,26.31
2023-02-01T04:18:28.184Z,26.73
2023-02-01T04:19:28.108Z,26.72
2023-02-01T04:22:28.150Z,26.75
2023-02-01T04:23:28.119Z,26.75
2023-02-01T04:24:28.208Z,26.75
2023-02-01T04:25:28.131Z,26.75
2023-02-01T04:26:28.264Z,26.78
2023-02-01T04:27:28.263Z,26.76
2023-02-01T04:28:28.224Z,26.76
2023-02-01T04:34:28.411Z,26.81
2023-02-01T04:35:28.407Z,26.81
2023-02-01T04:36:28.415Z,26.81
2023-02-01T04:37:28.456Z,26.82
2023-02-01T04:38:28.508Z,26.81
2023-02-01T04:39:28.551Z,26.81
2023-02-01T04:40:28.617Z,26.82
2023-02-01T04:41:28.588Z,26.81
2023-02-01T04:42:28.629Z,26.79
2023-02-01T04:43:28.684Z,26.79
2023-02-01T04:44:28.749Z,26.81
2023-02-01T04:45:28.752Z,26.81
2023-02-01T04:46:28.840Z,26.81
2023-02-01T04:47:28.877Z,26.79
2023-02-01T04:48:28.891Z,26.81
2023-02-01T04:49:28.902Z,26.81
2023-02-01T04:50:28.934Z,26.81
2023-02-01T04:51:28.942Z,26.79
2023-02-01T04:52:28.958Z,26.81
2023-02-01T04:53:28.960Z,26.81
2023-02-01T04:54:29.080Z,26.81
2023-02-01T04:55:28.985Z,26.79
2023-02-01T04:56:28.983Z,26.79
2023-02-01T04:57:29.052Z,26.79
2023-02-01T04:58:29.087Z,26.79
2023-02-01T04:59:29.098Z,26.78
2023-02-01T05:00:29.106Z,26.76
2023-02-01T05:01:29.147Z,26.79
2023-02-01T05:02:29.084Z,26.76
2023-02-01T05:03:29.069Z,26.78
2023-02-01T05:04:29.078Z,26.75
2023-02-01T05:05:29.100Z,26.76
2023-02-01T05:06:29.033Z,26.73
2023-02-01T05:07:29.032Z,26.73
2023-02-01T05:08:29.043Z,26.73
2023-02-01T05:09:29.090Z,26.71
2023-02-01T05:10:29.073Z,26.75
2023-02-01T05:43:28.985Z,26.65
2023-02-01T05:44:28.952Z,26.68
2023-02-01T05:45:28.955Z,26.68
2023-02-01T05:46:28.958Z,26.65
2023-02-01T05:50:29.123Z,26.65
2023-02-01T05:51:29.156Z,26.65
2023-02-01T05:53:29.181Z,26.65
2023-02-01T05:54:29.172Z,26.65
2023-02-01T05:55:29.166Z,26.66
2023-02-01T05:56:29.182Z,26.66
2023-02-01T05:57:29.165Z,26.66
2023-02-01T05:58:30.742Z,26.63
2023-02-01T05:59:29.159Z,26.66
2023-02-01T09:04:32.934Z,25.33
2023-02-01T09:05:47.507Z,25.43
2023-02-01T09:06:33.487Z,25.52
2023-02-01T09:25:32.483Z,26.41
2023-02-01T09:26:33.166Z,26.45
2023-02-01T09:27:32.599Z,26.45
2023-02-01T09:28:32.705Z,26.51
2023-02-01T09:29:32.718Z,26.52
2023-02-01T09:30:32.783Z,26.52
2023-02-01T09:31:33.042Z,26.53
2023-02-01T09:32:32.913Z,26.56
2023-02-01T09:33:32.929Z,26.53
2023-02-01T09:34:33.360Z,26.56
2023-02-01T09:35:33.063Z,26.58
2023-02-01T09:36:33.121Z,26.59
2023-02-01T09:37:33.261Z,26.62
2023-02-01T09:38:36.449Z,26.65
2023-02-01T09:39:34.374Z,26.66
2023-02-01T09:40:33.250Z,26.71
2023-02-01T09:41:33.258Z,26.71
2023-02-01T09:42:33.275Z,26.71
2023-02-01T09:43:33.228Z,26.71
2023-02-01T09:44:42.536Z,26.75
2023-02-01T09:45:34.206Z,26.75
2023-02-01T09:46:33.252Z,26.76
2023-02-01T09:47:33.223Z,26.76
2023-02-01T09:48:33.288Z,26.76
2023-02-01T09:49:33.362Z,26.76
2023-02-01T09:50:33.163Z,26.76
2023-02-01T09:51:33.179Z,26.81
2023-02-01T09:52:33.151Z,26.81
2023-02-01T09:53:33.242Z,26.78
2023-02-01T09:54:33.362Z,26.78
2023-02-01T09:55:33.360Z,26.76
2023-02-01T09:56:33.383Z,26.79
2023-02-01T09:57:33.447Z,26.75
2023-02-01T09:58:33.541Z,26.78
2023-02-01T09:59:33.583Z,26.79
2023-02-01T10:00:33.642Z,26.83
2023-02-01T10:01:33.800Z,26.81
2023-02-01T10:02:33.754Z,26.85
2023-02-01T10:03:34.033Z,26.82
2023-02-01T10:04:34.820Z,26.85
2023-02-01T10:05:33.844Z,26.85
2023-02-01T10:06:33.822Z,26.86
2023-02-01T10:07:33.798Z,26.86
2023-02-01T10:08:33.794Z,26.86
2023-02-01T10:09:33.760Z,26.85
2023-02-01T10:10:33.765Z,26.83
2023-02-01T10:11:33.787Z,26.83
2023-02-01T10:12:33.849Z,26.86
2023-02-01T10:13:33.912Z,26.85
2023-02-01T10:14:33.960Z,26.85
2023-02-01T10:15:34.027Z,26.83
2023-02-01T10:16:34.169Z,26.86
2023-02-01T10:17:34.140Z,26.87
2023-02-01T10:18:34.184Z,26.87
2023-02-01T10:19:34.191Z,26.87
2023-02-01T10:20:34.242Z,26.87
2023-02-01T10:21:34.353Z,26.89
2023-02-01T10:22:58.985Z,26.90
2023-02-01T10:23:35.396Z,26.92
2023-02-01T10:24:34.378Z,26.92
2023-02-01T10:25:34.398Z,26.92
2023-02-01T10:26:34.378Z,26.90
2023-02-01T10:27:34.346Z,26.87
2023-02-01T10:28:34.333Z,26.87
2023-02-01T10:29:34.363Z,26.87
2023-02-01T10:30:35.594Z,26.87
2023-02-01T10:31:34.408Z,26.89
2023-02-01T10:32:34.371Z,26.85
2023-02-01T10:33:34.416Z,26.87
2023-02-01T10:34:34.473Z,26.89
2023-02-01T10:35:34.514Z,26.90
2023-02-01T10:36:34.568Z,26.81
2023-02-01T10:37:34.623Z,26.78
2023-02-01T10:38:34.676Z,26.76
2023-02-01T10:39:34.784Z,26.78
2023-02-01T10:40:34.794Z,26.78
2023-02-01T10:41:34.898Z,26.73
2023-02-01T10:42:34.842Z,26.73
2023-02-01T10:43:34.926Z,26.60
2023-02-01T10:44:35.429Z,26.03
2023-02-01T10:45:35.188Z,25.21
2023-02-01T10:46:35.318Z,24.85
2023-02-01T10:47:35.051Z,24.77
2023-02-01T10:48:35.085Z,24.77
2023-02-01T10:49:35.160Z,24.81
2023-02-01T10:50:35.163Z,24.88
2023-02-01T10:51:35.141Z,24.96
2023-02-01T10:52:35.182Z,25.05
2023-02-01T10:53:35.182Z,25.12
2023-02-01T10:54:35.249Z,25.21
2023-02-01T10:55:35.408Z,25.28
2023-02-01T10:56:35.357Z,25.32
2023-02-01T10:57:35.366Z,25.39
2023-02-01T10:58:35.364Z,25.46
2023-02-01T10:59:35.362Z,25.50
2023-02-01T11:00:35.369Z,25.52
2023-02-01T11:01:35.469Z,25.57
2023-02-01T11:02:35.602Z,25.63
2023-02-01T11:03:35.565Z,25.69
2023-02-01T11:04:35.621Z,25.70
2023-02-01T11:05:35.682Z,25.73
2023-02-01T11:06:35.658Z,25.73
2023-02-01T11:07:35.732Z,25.80
2023-02-01T11:08:35.732Z,25.80
2023-02-01T11:09:35.758Z,25.81
2023-02-01T11:10:35.756Z,25.81
2023-02-01T11:11:35.775Z,25.81
2023-02-01T11:12:35.747Z,25.83
2023-02-01T11:13:35.775Z,25.84
2023-02-01T11:14:35.772Z,25.85
2023-02-01T11:15:35.893Z,25.88
2023-02-01T11:16:35.828Z,25.88
2023-02-01T11:17:35.783Z,25.97
2023-02-01T11:18:35.770Z,26.05
2023-02-01T11:19:35.811Z,26.11
2023-02-01T11:20:35.814Z,26.21
2023-02-01T11:21:35.894Z,26.30
2023-02-01T11:22:35.860Z,26.31
2023-02-01T11:23:35.889Z,26.39
2023-02-01T11:24:35.901Z,26.44
2023-02-01T11:25:36.401Z,26.52
2023-02-01T11:26:35.988Z,26.56
2023-02-01T11:27:40.360Z,26.62
2023-02-01T11:28:37.001Z,26.65
2023-02-01T11:29:36.000Z,26.68
2023-02-01T11:30:36.420Z,26.71
2023-02-01T11:31:36.091Z,26.69
2023-02-01T11:32:35.976Z,26.73
2023-02-01T11:33:35.984Z,26.76
2023-02-01T11:34:35.947Z,26.76
2023-02-01T11:35:36.432Z,26.79
2023-02-01T11:36:35.983Z,26.75
2023-02-01T11:37:36.060Z,26.72
2023-02-01T11:38:36.145Z,26.65
2023-02-01T11:39:36.218Z,26.66
2023-02-01T11:40:36.403Z,26.68
2023-02-01T11:41:36.178Z,26.66
2023-02-01T11:42:36.238Z,26.68
2023-02-01T11:43:36.248Z,26.71
2023-02-01T11:44:36.254Z,26.69
2023-02-01T11:45:36.201Z,26.66
2023-02-01T11:46:36.231Z,26.66
2023-02-01T11:47:36.208Z,26.68
2023-02-01T11:48:36.201Z,26.65
2023-02-01T11:49:36.211Z,26.69
2023-02-01T11:50:36.256Z,26.68
2023-02-01T11:51:36.185Z,26.69
2023-02-01T11:52:36.208Z,26.68
2023-02-01T11:53:36.206Z,26.71
2023-02-01T11:54:36.235Z,26.69
2023-02-01T11:55:36.285Z,26.69
2023-02-01T11:56:36.238Z,26.71
2023-02-01T11:57:36.181Z,26.69
2023-02-01T11:58:36.222Z,26.71
2023-02-01T11:59:38.876Z,26.71
2023-02-01T12:00:36.230Z,26.69
2023-02-01T12:01:36.193Z,26.69
2023-02-01T12:02:36.822Z,26.68
2023-02-01T12:03:36.245Z,26.69
2023-02-01T12:04:36.178Z,26.69
2023-02-01T12:05:36.207Z,26.71
2023-02-01T12:06:36.159Z,26.69
2023-02-01T12:17:36.124Z,26.76
2023-02-01T12:18:36.103Z,26.75
2023-02-01T12:19:36.117Z,26.78
2023-02-01T12:20:36.091Z,26.78
2023-02-01T12:21:36.101Z,26.73
2023-02-01T12:22:36.094Z,26.73
2023-02-01T12:23:36.101Z,26.79
2023-02-01T12:24:36.087Z,26.75
2023-02-01T12:25:36.036Z,26.76
2023-02-01T12:26:36.136Z,26.75
2023-02-01T12:27:36.073Z,26.76
2023-02-01T12:28:36.026Z,26.78
2023-02-01T12:29:36.040Z,26.76
2023-02-01T12:30:36.438Z,26.78
2023-02-01T12:31:36.086Z,26.73
2023-02-01T12:32:36.045Z,26.75
2023-02-01T12:33:36.044Z,26.73
2023-02-01T12:34:36.037Z,26.71
2023-02-01T12:35:36.425Z,26.73
2023-02-01T12:36:36.047Z,26.69
2023-02-01T12:37:36.094Z,26.65
2023-02-01T12:38:36.082Z,26.62
2023-02-01T12:39:36.329Z,26.58
2023-02-01T12:40:36.081Z,26.56
2023-02-01T12:41:36.050Z,26.52
2023-02-01T12:42:36.077Z,26.51
2023-02-01T12:43:36.066Z,26.51
2023-02-01T12:44:36.099Z,26.46
2023-02-01T12:45:36.121Z,26.46
2023-02-01T12:46:36.120Z,26.45
2023-02-01T12:47:36.144Z,26.42
2023-02-01T12:48:36.145Z,26.39
2023-02-01T12:49:36.172Z,26.38
2023-02-01T12:50:36.185Z,26.35
2023-02-01T12:51:36.199Z,26.35
2023-02-01T12:52:36.208Z,26.32
2023-02-01T12:53:36.228Z,26.31
2023-02-01T12:54:36.266Z,26.31
2023-02-01T12:55:36.233Z,26.27
2023-02-01T12:56:36.252Z,26.28
2023-02-01T12:57:36.279Z,26.31
2023-02-01T12:58:36.337Z,26.28
2023-02-01T12:59:36.343Z,26.27
2023-02-01T13:00:36.364Z,26.25
2023-02-01T13:01:36.358Z,26.27
2023-02-01T13:02:36.408Z,26.25
2023-02-01T13:03:36.416Z,26.25
2023-02-01T13:04:36.433Z,26.25
2023-02-01T13:05:36.409Z,26.27
2023-02-01T13:06:36.470Z,26.25
2023-02-01T13:07:36.473Z,26.27
2023-02-01T13:08:36.484Z,26.27
2023-02-01T13:10:36.515Z,26.28
2023-02-01T13:11:36.546Z,26.27
2023-02-01T13:12:36.501Z,26.30
2023-02-01T13:13:36.547Z,26.31
2023-02-01T13:14:36.549Z,26.30
2023-02-01T13:15:36.598Z,26.27
2023-02-01T13:16:36.647Z,26.25
2023-02-01T13:17:36.637Z,26.27
2023-02-01T13:18:36.625Z,26.25
2023-02-01T13:19:36.629Z,26.25
2023-02-01T13:20:36.667Z,26.24
2023-02-01T13:21:36.701Z,26.25
2023-02-01T13:22:36.729Z,26.22
2023-02-01T13:23:36.719Z,26.25
2023-02-01T13:24:36.745Z,26.21
2023-02-01T13:25:36.777Z,26.20
2023-02-01T13:26:36.899Z,26.20
2023-02-01T13:27:36.838Z,26.20
2023-02-01T13:28:36.844Z,26.18
2023-02-01T13:29:36.884Z,26.17
2023-02-01T13:30:37.050Z,26.17
2023-02-01T13:31:37.270Z,26.15
2023-02-01T13:33:51.239Z,26.14
2023-02-01T13:33:53.309Z,26.12
2023-02-01T13:34:37.993Z,26.14
2023-02-01T13:35:37.555Z,26.15
2023-02-01T13:36:37.576Z,26.15
2023-02-01T13:37:36.964Z,26.14
2023-02-01T13:38:36.945Z,26.17
2023-02-01T13:39:36.939Z,26.17
2023-02-01T13:40:36.952Z,26.17
2023-02-01T13:41:36.911Z,26.18
2023-02-01T13:42:36.907Z,26.21
2023-02-01T13:43:36.924Z,26.24
2023-02-01T13:44:36.921Z,26.27
2023-02-01T13:45:36.924Z,26.32
2023-02-01T13:46:36.908Z,26.35
2023-02-01T13:47:36.899Z,26.36
2023-02-01T13:48:36.879Z,26.39
2023-02-01T13:49:36.850Z,26.41
2023-02-01T13:50:36.900Z,26.45
2023-02-01T13:51:36.833Z,26.45
2023-02-01T13:52:36.836Z,26.49
2023-02-01T13:53:36.836Z,26.49
2023-02-01T13:54:36.832Z,26.53
2023-02-01T13:55:36.836Z,26.55
2023-02-01T13:56:37.460Z,26.58
2023-02-01T13:57:36.800Z,26.59
2023-02-01T13:58:36.789Z,26.59
2023-02-01T13:59:36.793Z,26.59
2023-02-01T14:00:37.295Z,26.59
2023-02-01T14:01:36.851Z,26.62
2023-02-01T14:09:36.683Z,26.66
2023-02-01T14:10:36.950Z,26.68
2023-02-01T14:11:36.818Z,26.68
2023-02-01T14:12:36.682Z,26.71
2023-02-01T14:13:36.796Z,26.69
2023-02-01T14:14:36.697Z,26.69
2023-02-01T14:15:36.668Z,26.69
2023-02-01T14:16:36.680Z,26.69
2023-02-01T14:17:36.646Z,26.69
2023-02-01T14:18:36.645Z,26.69
2023-02-01T14:19:36.643Z,26.71
2023-02-01T14:20:36.624Z,26.71
2023-02-01T14:21:36.631Z,26.69
2023-02-01T14:24:36.584Z,26.71
2023-02-01T14:25:36.626Z,26.73
2023-02-01T14:26:36.612Z,26.69
2023-02-01T14:27:36.559Z,26.71
2023-02-01T14:28:36.586Z,26.71
2023-02-01T14:29:36.544Z,26.71
2023-02-01T14:31:36.688Z,26.72
2023-02-01T14:32:36.532Z,26.73
2023-02-01T14:33:36.538Z,26.72
2023-02-01T14:34:36.521Z,26.72
2023-02-01T14:35:36.526Z,26.73
2023-02-01T14:36:36.481Z,26.73
2023-02-01T14:37:36.512Z,26.73
2023-02-01T14:38:36.481Z,26.69
2023-02-01T14:39:36.844Z,26.75
2023-02-01T14:40:36.842Z,26.69
2023-02-01T14:41:36.531Z,26.72
2023-02-01T14:42:36.457Z,26.73
2023-02-01T14:43:37.253Z,26.72
2023-02-01T14:44:37.057Z,26.72
2023-02-01T14:45:36.452Z,26.71
2023-02-01T14:46:36.498Z,26.72
2023-02-01T18:44:41.632Z,25.90
2023-02-01T19:01:44.611Z,25.91
2023-02-01T19:02:42.671Z,25.88
2023-02-01T19:03:43.361Z,25.87
2023-02-01T19:05:42.572Z,25.87
2023-02-01T19:06:42.588Z,25.87
2023-02-01T19:07:42.603Z,25.88
2023-02-01T19:08:42.591Z,25.85
2023-02-01T19:09:42.562Z,25.84
2023-02-01T19:10:42.559Z,25.88
2023-02-01T19:11:42.524Z,25.85
2023-02-01T19:12:42.537Z,25.84
2023-02-01T19:13:42.529Z,25.84
2023-02-01T19:14:42.555Z,25.83
2023-02-01T19:15:42.642Z,25.84
2023-02-01T19:16:42.616Z,25.85
2023-02-01T19:17:42.691Z,25.85
2023-02-01T19:18:42.723Z,25.83
2023-02-01T19:19:42.774Z,25.85
2023-02-01T19:20:42.858Z,25.84
2023-02-01T19:21:42.929Z,25.81
2023-02-01T19:22:42.976Z,25.84
2023-02-01T19:23:43.040Z,25.80
2023-02-01T19:24:43.062Z,25.79
2023-02-01T19:25:43.132Z,25.81
2023-02-01T19:26:43.275Z,25.81
2023-02-01T19:27:43.246Z,25.83
2023-02-01T19:28:43.323Z,25.79
2023-02-01T19:29:43.343Z,25.80
2023-02-01T19:30:43.603Z,25.77
2023-02-01T19:31:43.513Z,25.81
2023-02-01T19:32:43.552Z,25.79
2023-02-01T19:33:43.602Z,25.79
2023-02-01T19:34:43.617Z,25.79
2023-02-01T19:35:43.667Z,25.77
2023-02-01T19:36:43.740Z,25.79
2023-02-01T19:37:43.834Z,25.79
2023-02-01T19:38:43.851Z,25.77
2023-02-01T19:39:43.923Z,25.77
2023-02-01T19:40:43.962Z,25.79
2023-02-01T19:41:44.006Z,25.79
2023-02-01T19:42:44.054Z,25.79
2023-02-01T19:43:44.119Z,25.77
2023-02-01T19:44:44.209Z,25.77
2023-02-01T19:45:44.208Z,25.80
2023-02-01T19:46:44.340Z,25.80
2023-02-01T19:47:44.317Z,25.79
2023-02-01T19:48:44.394Z,25.77
2023-02-01T19:49:44.458Z,25.79
2023-02-01T19:50:44.502Z,25.81
2023-02-01T19:51:44.562Z,25.79
2023-02-01T19:52:44.616Z,25.80
2023-02-01T19:53:44.695Z,25.77
2023-02-01T19:54:44.736Z,25.80
2023-02-01T19:55:44.812Z,25.79
2023-02-01T19:56:44.828Z,25.80
2023-02-01T19:57:44.910Z,25.79
2023-02-01T19:58:44.951Z,25.81
2023-02-01T19:59:44.978Z,25.81
2023-02-01T20:00:44.175Z,25.80
2023-02-01T20:01:44.336Z,25.80
2023-02-01T20:02:44.354Z,25.80
2023-02-01T20:03:44.354Z,25.81
2023-02-01T20:04:44.410Z,25.80
2023-02-01T20:05:44.484Z,25.81
2023-02-01T20:06:44.560Z,25.81
2023-02-01T20:07:44.637Z,25.81
2023-02-01T20:08:44.676Z,25.80
2023-02-01T20:09:44.737Z,25.81
2023-02-01T20:10:44.763Z,25.80
2023-02-01T20:11:44.831Z,25.80
2023-02-01T20:12:44.883Z,25.81
2023-02-01T20:13:44.954Z,25.79
2023-02-01T20:14:44.995Z,25.81
2023-02-01T20:15:45.094Z,25.79
2023-02-01T20:16:45.147Z,25.77
2023-02-01T20:17:45.173Z,25.76
2023-02-01T20:18:45.238Z,25.79
2023-02-01T20:19:45.275Z,25.81
2023-02-01T20:20:45.340Z,25.80
2023-02-01T20:21:45.424Z,25.77
2023-02-01T20:22:45.493Z,25.79
2023-02-01T20:23:46.882Z,25.79
2023-02-01T20:24:45.581Z,25.79
2023-02-01T20:25:46.482Z,25.77
2023-02-01T20:26:46.601Z,25.77
2023-02-01T20:27:46.665Z,25.77
2023-02-01T20:28:46.675Z,25.79
2023-02-01T20:29:46.758Z,25.77
2023-02-01T20:30:46.863Z,25.77
2023-02-01T20:31:46.941Z,25.80
2023-02-01T20:32:48.720Z,25.74
2023-02-01T20:33:47.002Z,25.76
2023-02-01T20:34:47.068Z,25.77
2023-02-01T20:35:47.095Z,25.79
2023-02-01T20:36:47.129Z,25.77
2023-02-01T20:37:47.203Z,25.77
2023-02-01T20:38:47.268Z,25.77
2023-02-01T20:39:47.312Z,25.80
2023-02-01T20:40:47.364Z,25.79
2023-02-01T20:41:47.427Z,25.79
2023-02-01T20:42:47.485Z,25.80
2023-02-01T20:43:47.576Z,25.77
2023-02-01T20:44:47.599Z,25.76
2023-02-01T20:45:47.672Z,25.80
2023-02-01T20:46:47.783Z,25.79
2023-02-01T20:47:47.815Z,25.77
2023-02-01T20:48:47.850Z,25.80
2023-02-01T20:49:47.960Z,25.77
2023-02-01T20:50:47.970Z,25.80
2023-02-01T20:51:48.022Z,25.77
2023-02-01T20:52:48.093Z,25.77
2023-02-01T20:53:48.126Z,25.76
2023-02-01T20:54:48.194Z,25.76
2023-02-01T20:55:48.262Z,25.76
2023-02-01T20:56:48.331Z,25.74
2023-02-01T20:57:48.381Z,25.76
2023-02-01T20:58:48.426Z,25.74
2023-02-01T20:59:48.530Z,25.76
2023-02-01T21:00:48.655Z,25.74
2023-02-01T21:01:48.630Z,25.77
2023-02-01T21:02:48.699Z,25.76
2023-02-01T21:03:48.701Z,25.74
2023-02-01T21:04:48.773Z,25.76
2023-02-01T21:05:48.828Z,25.74
2023-02-01T21:06:48.890Z,25.79
2023-02-01T21:07:48.985Z,25.77
2023-02-01T21:08:49.002Z,25.76
2023-02-01T21:09:49.071Z,25.74
2023-02-01T21:10:49.142Z,25.73
2023-02-01T21:11:49.179Z,25.76
2023-02-01T21:12:55.625Z,25.77
2023-02-01T21:14:49.270Z,25.76
2023-02-01T21:15:49.224Z,25.77
2023-02-01T21:16:49.212Z,25.76
2023-02-01T21:17:49.215Z,25.73
2023-02-01T21:18:49.222Z,25.76
2023-02-01T21:19:49.191Z,25.76
2023-02-01T21:20:49.207Z,25.74
2023-02-01T21:21:49.211Z,25.76
2023-02-01T21:22:49.200Z,25.74
2023-02-01T21:23:49.282Z,25.70
2023-02-01T21:24:49.378Z,25.73
2023-02-01T21:25:49.419Z,25.72
2023-02-01T21:26:49.512Z,25.74
2023-02-01T21:27:49.532Z,25.70
2023-02-01T21:28:49.608Z,25.72
2023-02-01T21:29:49.667Z,25.74
2023-02-01T21:30:49.742Z,25.73
2023-02-01T21:31:49.827Z,25.69
2023-02-01T21:32:49.866Z,25.70
2023-02-01T21:33:49.935Z,25.72
2023-02-01T21:34:49.942Z,25.72
2023-02-01T21:35:50.034Z,25.72
2023-02-01T21:36:50.045Z,25.70
2023-02-01T21:37:50.145Z,25.73
2023-02-01T21:38:50.243Z,25.73
2023-02-01T21:39:50.250Z,25.70
2023-02-01T21:40:50.341Z,25.72
2023-02-01T21:41:50.396Z,25.72
2023-02-01T21:42:50.444Z,25.73
2023-02-01T21:43:50.525Z,25.73
2023-02-01T21:44:50.568Z,25.74
2023-02-01T21:45:51.419Z,25.70
2023-02-01T21:46:50.701Z,25.74
2023-02-01T21:47:50.749Z,25.69
2023-02-01T21:49:04.392Z,25.70
2023-02-01T21:49:51.857Z,25.70
2023-02-01T21:50:50.775Z,25.70
2023-02-01T21:51:50.857Z,25.70
2023-02-01T21:52:50.803Z,25.72
2023-02-01T21:53:50.796Z,25.72
2023-02-01T21:54:50.767Z,25.70
2023-02-01T22:40:53.288Z,25.67
2023-02-01T22:41:53.365Z,25.67
2023-02-01T22:42:53.441Z,25.66
2023-02-01T22:43:53.473Z,25.67
2023-02-01T22:44:53.517Z,25.66
2023-02-01T22:45:53.625Z,25.66
2023-02-01T22:46:53.621Z,25.69
2023-02-01T22:47:53.693Z,25.66
2023-02-01T22:48:53.748Z,25.67
2023-02-01T22:49:53.826Z,25.67
2023-02-01T22:50:53.851Z,25.66
2023-02-01T22:51:53.928Z,25.67
2023-02-01T22:52:53.955Z,25.66
2023-02-01T22:53:54.040Z,25.67
2023-02-01T22:54:54.112Z,25.67
2023-02-01T22:55:54.155Z,25.67
2023-02-01T22:56:54.219Z,25.69
2023-02-01T22:57:54.252Z,25.67
2023-02-01T22:58:54.312Z,25.67
2023-02-01T22:59:54.396Z,25.69
2023-02-01T23:00:54.456Z,25.67
2023-02-01T23:01:54.539Z,25.66
2023-02-01T23:02:54.579Z,25.67
2023-02-01T23:03:54.663Z,25.66
2023-02-01T23:04:54.675Z,25.66
2023-02-01T23:05:54.769Z,25.66
2023-02-01T23:06:54.785Z,25.69
2023-02-01T23:07:54.869Z,25.67
2023-02-01T23:08:54.947Z,25.67
2023-02-01T23:09:55.024Z,25.64
2023-02-01T23:10:56.159Z,25.66
2023-02-01T23:11:55.174Z,25.66
2023-02-01T23:12:55.181Z,25.63
2023-02-01T23:13:55.216Z,25.64
2023-02-01T23:14:55.309Z,25.66
2023-02-01T23:15:55.356Z,25.67
2023-02-01T23:16:55.382Z,25.66
2023-02-01T23:17:55.455Z,25.64
2023-02-01T23:18:55.478Z,25.66
2023-02-01T23:19:55.595Z,25.64
2023-02-01T23:20:55.644Z,25.67
2023-02-01T23:21:55.680Z,25.64
2023-02-01T23:22:55.735Z,25.66
2023-02-01T23:23:55.794Z,25.64
2023-02-01T23:24:55.876Z,25.64
2023-02-01T23:25:55.927Z,25.66
2023-02-01T23:26:56.019Z,25.63
2023-02-01T23:27:56.035Z,25.64
2023-02-01T23:28:56.103Z,25.62
2023-02-01T23:29:56.176Z,25.60
2023-02-01T23:30:56.283Z,25.62
2023-02-01T23:31:56.323Z,25.60
2023-02-01T23:32:56.510Z,25.62
2023-02-01T23:33:56.908Z,25.63
2023-02-01T23:34:56.407Z,25.64
2023-02-01T23:35:56.423Z,25.63
2023-02-01T23:36:56.495Z,25.62
2023-02-01T23:37:56.557Z,25.60
2023-02-01T23:38:56.589Z,25.62
2023-02-01T23:39:56.675Z,25.62
2023-02-01T23:40:56.728Z,25.62
2023-02-01T23:41:56.771Z,25.62
2023-02-01T23:42:56.878Z,25.59
2023-02-01T23:43:56.930Z,25.60
2023-02-01T23:44:56.991Z,25.62
2023-02-01T23:45:57.043Z,25.60
2023-02-01T23:46:57.076Z,25.62
2023-02-01T23:47:57.151Z,25.60
2023-02-01T23:48:57.204Z,25.59
2023-02-01T23:49:57.268Z,25.60
2023-02-01T23:50:57.305Z,25.59
2023-02-01T23:51:57.352Z,25.60
2023-02-01T23:52:57.449Z,25.59
2023-02-01T23:53:57.473Z,25.59
2023-02-01T23:54:57.529Z,25.59
2023-02-01T23:55:57.577Z,25.59
2023-02-01T23:56:57.647Z,25.60
2023-02-01T23:57:57.704Z,25.60
2023-02-01T23:58:57.755Z,25.60
2023-02-01T23:59:57.850Z,25.60
